createdAt,value
2018-10-19T00:02:17.404Z,65.92
2018-10-19T00:04:44.909Z,74.87
2018-10-19T00:07:12.497Z,70.60
2018-10-19T00:09:40.002Z,73.52
2018-10-19T00:12:07.569Z,75.57
2018-10-19T00:14:35.302Z,75.70
2018-10-19T00:17:02.979Z,75.30
2018-10-19T00:19:30.438Z,67.95
2018-10-19T00:21:57.984Z,74.60
2018-10-19T00:24:25.639Z,82.33
2018-10-19T00:26:53.185Z,76.82
2018-10-19T00:29:20.843Z,80.10
2018-10-19T00:31:48.497Z,73.50
2018-10-19T00:34:16.043Z,67.08
2018-10-19T00:36:43.576Z,75.87
2018-10-19T00:39:12.367Z,76.02
2018-10-19T00:41:40.018Z,69.15
2018-10-19T00:44:07.537Z,71.62
2018-10-19T00:46:35.068Z,78.25
2018-10-19T00:49:02.729Z,67.40
2018-10-19T00:51:30.290Z,79.67
2018-10-19T00:53:57.872Z,76.47
2018-10-19T00:56:25.445Z,82.62
2018-10-19T00:58:53.024Z,73.20
2018-10-19T01:01:20.490Z,75.80
2018-10-19T01:03:48.025Z,67.60
2018-10-19T01:06:15.616Z,67.82
2018-10-19T01:08:43.212Z,69.82
2018-10-19T01:11:10.860Z,70.25
2018-10-19T01:13:38.310Z,72.92
2018-10-19T01:16:05.840Z,66.42
2018-10-19T01:18:33.404Z,65.20
2018-10-19T01:21:01.041Z,65.10
2018-10-19T01:23:28.549Z,61.15
2018-10-19T01:25:56.134Z,66.17
2018-10-19T01:28:23.675Z,62.67
2018-10-19T01:30:51.229Z,65.85
2018-10-19T01:33:18.792Z,65.17
2018-10-19T01:35:46.346Z,72.15
2018-10-19T01:38:13.903Z,68.55
2018-10-19T01:40:41.422Z,67.60
2018-10-19T01:43:08.983Z,73.05
2018-10-19T01:45:36.559Z,58.95
2018-10-19T01:48:04.149Z,67.78
2018-10-19T01:50:31.685Z,64.37
2018-10-19T01:52:59.276Z,62.70
2018-10-19T01:55:26.795Z,51.90
2018-10-19T01:57:54.325Z,56.83
2018-10-19T02:00:21.854Z,61.60
2018-10-19T02:02:49.403Z,51.65
2018-10-19T02:05:16.920Z,58.02
2018-10-19T02:07:44.469Z,53.40
2018-10-19T02:10:12.017Z,47.83
2018-10-19T02:12:39.512Z,62.00
2018-10-19T02:15:07.539Z,55.75
2018-10-19T02:17:35.015Z,61.08
2018-10-19T02:20:02.708Z,51.58
2018-10-19T02:22:30.202Z,56.15
2018-10-19T02:24:57.747Z,56.05
2018-10-19T02:27:25.264Z,52.38
2018-10-19T02:29:52.804Z,51.88
2018-10-19T02:32:20.349Z,52.27
2018-10-19T02:34:47.860Z,48.80
2018-10-19T02:37:15.419Z,56.83
2018-10-19T02:39:42.944Z,56.25
2018-10-19T02:42:10.540Z,57.23
2018-10-19T02:44:38.053Z,53.95
2018-10-19T02:47:05.728Z,54.80
2018-10-19T02:49:33.200Z,56.85
2018-10-19T02:52:00.702Z,55.55
2018-10-19T02:54:28.247Z,60.43
2018-10-19T02:56:55.751Z,58.45
2018-10-19T02:59:23.270Z,63.75
2018-10-19T03:01:50.815Z,66.22
2018-10-19T03:04:18.353Z,116.82
2018-10-19T03:06:45.882Z,75.47
2018-10-19T03:09:13.498Z,79.95
2018-10-19T03:11:41.120Z,84.55
2018-10-19T03:14:08.610Z,69.37
2018-10-19T03:16:36.150Z,80.03
2018-10-19T03:19:03.908Z,96.90
2018-10-19T03:21:31.455Z,72.53
2018-10-19T03:23:59.001Z,82.82
2018-10-19T03:26:26.540Z,112.70
2018-10-19T03:28:54.162Z,101.30
2018-10-19T03:31:21.668Z,85.77
2018-10-19T03:33:49.198Z,103.70
2018-10-19T03:36:16.739Z,98.78
2018-10-19T03:38:44.303Z,77.90
2018-10-19T03:41:11.895Z,79.32
2018-10-19T03:43:39.386Z,75.85
2018-10-19T03:46:07.065Z,77.25
2018-10-19T03:48:34.601Z,78.35
2018-10-19T03:51:02.186Z,70.78
2018-10-19T03:53:29.750Z,73.92
2018-10-19T03:55:57.298Z,66.50
2018-10-19T03:58:24.864Z,83.45
2018-10-19T04:00:52.419Z,83.60
2018-10-19T04:03:19.981Z,84.28
2018-10-19T04:05:47.470Z,88.70
2018-10-19T04:08:15.032Z,77.42
2018-10-19T04:10:42.608Z,80.80
2018-10-19T04:13:10.195Z,81.78
2018-10-19T04:15:37.734Z,75.15
2018-10-19T04:18:05.291Z,66.35
2018-10-19T04:20:32.828Z,72.15
2018-10-19T04:23:04.220Z,85.85
2018-10-19T04:25:31.732Z,80.70
2018-10-19T04:27:59.299Z,70.67
2018-10-19T04:30:26.834Z,66.70
2018-10-19T04:32:54.415Z,55.50
2018-10-19T04:35:21.997Z,55.67
2018-10-19T04:37:49.607Z,52.17
2018-10-19T04:40:19.565Z,55.00
2018-10-19T04:42:47.274Z,55.57
2018-10-19T04:45:15.146Z,47.87
2018-10-19T04:47:42.751Z,40.30
2018-10-19T04:50:10.445Z,44.73
2018-10-19T04:52:38.055Z,48.30
2018-10-19T04:55:08.197Z,41.73
2018-10-19T04:57:35.731Z,43.63
2018-10-19T05:00:03.579Z,38.57
2018-10-19T05:02:31.145Z,41.00
2018-10-19T05:04:58.692Z,39.57
2018-10-19T05:07:26.268Z,38.37
2018-10-19T05:09:53.826Z,38.90
2018-10-19T05:12:21.443Z,39.50
2018-10-19T05:14:48.961Z,33.20
2018-10-19T05:17:16.573Z,39.37
2018-10-19T05:19:44.133Z,70.80
2018-10-19T05:22:11.677Z,44.57
2018-10-19T05:24:39.268Z,45.37
2018-10-19T05:27:06.821Z,52.30
2018-10-19T05:29:34.403Z,63.30
2018-10-19T05:32:02.003Z,70.20
2018-10-19T05:34:29.524Z,78.97
2018-10-19T05:36:57.093Z,50.07
2018-10-19T05:39:24.629Z,53.53
2018-10-19T05:41:52.209Z,50.17
2018-10-19T05:44:19.778Z,54.08
2018-10-19T05:46:47.374Z,55.58
2018-10-19T05:49:14.946Z,58.40
2018-10-19T05:51:42.571Z,59.90
2018-10-19T05:54:10.130Z,58.10
2018-10-19T05:56:37.702Z,81.32
2018-10-19T05:59:05.324Z,67.82
2018-10-19T06:01:32.910Z,70.17
2018-10-19T06:04:00.440Z,56.15
2018-10-19T06:06:27.978Z,73.12
2018-10-19T06:08:55.540Z,126.85
2018-10-19T06:11:23.130Z,112.72
2018-10-19T06:13:50.706Z,63.78
2018-10-19T06:16:18.308Z,64.62
2018-10-19T06:18:45.890Z,107.72
2018-10-19T06:21:13.444Z,75.50
2018-10-19T06:23:41.033Z,73.65
2018-10-19T06:26:08.709Z,83.07
2018-10-19T06:28:36.134Z,74.67
2018-10-19T06:31:03.705Z,84.40
2018-10-19T06:33:31.341Z,67.97
2018-10-19T06:35:58.889Z,68.02
2018-10-19T06:38:26.404Z,74.40
2018-10-19T06:40:54.171Z,70.40
2018-10-19T06:43:21.657Z,85.20
2018-10-19T06:45:49.188Z,73.95
2018-10-19T06:48:16.753Z,99.28
2018-10-19T06:50:44.325Z,84.25
2018-10-19T06:53:11.926Z,95.03
2018-10-19T06:55:39.434Z,105.47
2018-10-19T06:58:06.986Z,99.35
2018-10-19T07:00:34.577Z,84.75
2018-10-19T07:03:02.114Z,88.42
2018-10-19T07:05:29.709Z,73.37
2018-10-19T07:07:57.236Z,72.12
2018-10-19T07:10:24.796Z,73.90
2018-10-19T07:12:52.363Z,98.90
2018-10-19T07:15:19.929Z,64.95
2018-10-19T07:17:47.519Z,68.40
2018-10-19T07:20:15.119Z,69.15
2018-10-19T07:22:42.672Z,80.70
2018-10-19T07:25:10.251Z,61.02
2018-10-19T07:27:37.836Z,69.50
2018-10-19T07:30:05.852Z,74.20
2018-10-19T07:32:33.428Z,66.95
2018-10-19T07:35:00.975Z,64.37
2018-10-19T07:37:28.552Z,65.35
2018-10-19T07:39:56.077Z,72.17
2018-10-19T07:42:23.948Z,73.92
2018-10-19T07:44:51.404Z,75.10
2018-10-19T07:47:19.042Z,72.50
2018-10-19T07:49:46.467Z,69.63
2018-10-19T07:52:14.015Z,70.77
2018-10-19T07:54:41.607Z,83.40
2018-10-19T07:57:09.145Z,133.37
2018-10-19T07:59:36.696Z,75.30
2018-10-19T08:02:04.688Z,78.43
2018-10-19T08:04:32.282Z,76.27
2018-10-19T08:06:59.838Z,84.87
2018-10-19T08:09:27.372Z,79.83
2018-10-19T08:11:54.976Z,74.93
2018-10-19T08:14:22.565Z,88.27
2018-10-19T08:16:50.138Z,83.27
2018-10-19T08:19:17.691Z,86.90
2018-10-19T08:21:45.230Z,80.83
2018-10-19T08:24:12.749Z,73.00
2018-10-19T08:26:40.294Z,121.13
2018-10-19T08:29:07.884Z,78.47
2018-10-19T08:31:35.444Z,101.83
2018-10-19T08:34:03.032Z,77.90
2018-10-19T08:36:30.584Z,74.53
2018-10-19T08:38:58.134Z,78.33
2018-10-19T08:41:25.770Z,69.23
2018-10-19T08:43:53.313Z,82.53
2018-10-19T08:46:26.558Z,73.13
2018-10-19T08:48:54.135Z,69.30
2018-10-19T08:51:21.636Z,58.57
2018-10-19T08:53:49.211Z,58.63
2018-10-19T08:56:16.724Z,71.70
2018-10-19T08:58:44.271Z,61.23
2018-10-19T09:01:11.855Z,56.43
2018-10-19T09:03:39.442Z,75.23
2018-10-19T09:06:06.954Z,60.33
2018-10-19T09:08:34.549Z,62.47
2018-10-19T09:11:02.274Z,67.43
2018-10-19T09:13:29.724Z,68.57
2018-10-19T09:15:57.305Z,68.77
2018-10-19T09:18:24.860Z,67.57
2018-10-19T09:20:52.442Z,75.60
2018-10-19T09:23:20.013Z,74.97
2018-10-19T09:25:47.616Z,76.73
2018-10-19T09:28:15.235Z,76.00
2018-10-19T09:30:42.801Z,89.40
2018-10-19T09:33:10.371Z,87.47
2018-10-19T09:35:38.062Z,83.13
2018-10-19T09:38:05.500Z,85.83
2018-10-19T09:40:33.078Z,97.33
2018-10-19T09:43:00.623Z,88.57
2018-10-19T09:45:28.172Z,94.07
2018-10-19T09:47:55.719Z,90.63
2018-10-19T09:50:23.337Z,100.13
2018-10-19T09:52:50.847Z,101.80
2018-10-19T09:55:18.464Z,91.73
2018-10-19T09:57:45.973Z,103.03
2018-10-19T10:00:19.171Z,92.10
2018-10-19T10:02:47.417Z,95.53
2018-10-19T10:05:15.088Z,103.60
2018-10-19T10:07:42.607Z,105.83
2018-10-19T10:10:10.145Z,107.47
2018-10-19T10:12:37.723Z,103.37
2018-10-19T10:15:05.499Z,119.80
2018-10-19T10:17:33.035Z,110.07
2018-10-19T10:20:00.542Z,112.13
2018-10-19T10:22:28.129Z,118.93
2018-10-19T10:24:55.760Z,103.97
2018-10-19T10:27:23.257Z,118.37
2018-10-19T10:29:50.800Z,113.10
2018-10-19T10:32:18.415Z,110.30
2018-10-19T10:34:46.008Z,112.63
2018-10-19T10:37:13.569Z,112.93
2018-10-19T10:39:41.109Z,116.37
2018-10-19T10:42:08.672Z,111.03
2018-10-19T10:44:36.190Z,112.63
2018-10-19T10:47:03.917Z,108.67
2018-10-19T10:49:31.396Z,108.87
2018-10-19T10:51:59.018Z,117.17
2018-10-19T10:54:26.566Z,109.67
2018-10-19T10:56:54.094Z,121.27
2018-10-19T10:59:21.625Z,104.10
2018-10-19T11:01:49.212Z,114.83
2018-10-19T11:04:16.827Z,119.43
2018-10-19T11:06:44.338Z,112.43
2018-10-19T11:09:12.020Z,110.80
2018-10-19T11:11:39.635Z,116.23
2018-10-19T11:14:07.271Z,116.47
2018-10-19T11:16:34.868Z,119.37
2018-10-19T11:19:02.452Z,124.57
2018-10-19T11:21:30.004Z,130.53
2018-10-19T11:23:57.654Z,109.57
2018-10-19T11:26:25.215Z,115.67
2018-10-19T11:28:52.770Z,112.87
2018-10-19T11:31:20.319Z,114.50
2018-10-19T11:33:47.924Z,121.20
2018-10-19T11:36:15.491Z,113.27
2018-10-19T11:38:43.007Z,96.80
2018-10-19T11:41:10.625Z,92.23
2018-10-19T11:43:38.203Z,106.17
2018-10-19T11:46:05.852Z,97.40
2018-10-19T11:48:33.356Z,99.03
2018-10-19T11:51:00.992Z,105.83
2018-10-19T11:53:28.587Z,113.33
2018-10-19T11:55:56.134Z,99.17
2018-10-19T11:58:23.715Z,115.97
2018-10-19T12:00:51.289Z,126.57
2018-10-19T12:03:18.886Z,110.83
2018-10-19T12:05:46.475Z,108.70
2018-10-19T12:08:14.063Z,109.37
2018-10-19T12:10:41.701Z,127.47
2018-10-19T12:13:09.381Z,127.10
2018-10-19T12:15:36.873Z,117.47
2018-10-19T12:18:05.485Z,113.97
2018-10-19T12:20:33.121Z,115.83
2018-10-19T12:23:00.717Z,113.07
2018-10-19T12:25:28.283Z,112.60
2018-10-19T12:27:55.897Z,125.93
2018-10-19T12:30:23.478Z,118.17
2018-10-19T12:32:51.061Z,115.50
2018-10-19T12:35:18.599Z,98.53
2018-10-19T12:37:46.173Z,121.63
2018-10-19T12:40:13.772Z,118.27
2018-10-19T12:42:41.381Z,117.03
2018-10-19T12:46:26.219Z,114.40
2018-10-19T12:48:54.372Z,107.77
2018-10-19T12:51:21.940Z,108.40
2018-10-19T12:53:49.670Z,106.43
2018-10-19T12:56:18.182Z,107.97
2018-10-19T12:58:46.166Z,107.33
2018-10-19T13:01:13.945Z,107.83
2018-10-19T13:03:41.513Z,102.33
2018-10-19T13:06:09.974Z,96.43
2018-10-19T13:08:37.657Z,117.10
2018-10-19T13:11:05.448Z,101.90
2018-10-19T13:13:33.008Z,96.57
2018-10-19T13:16:01.174Z,96.40
2018-10-19T13:18:29.318Z,91.53
2018-10-19T13:20:57.159Z,110.00
2018-10-19T13:23:24.720Z,91.87
2018-10-19T13:25:52.666Z,103.50
2018-10-19T13:28:20.263Z,91.60
2018-10-19T13:30:47.802Z,101.60
2018-10-19T13:33:15.518Z,106.73
2018-10-19T13:35:43.009Z,94.77
2018-10-19T13:38:10.596Z,93.00
2018-10-19T13:40:38.214Z,90.63
2018-10-19T13:43:05.771Z,96.33
2018-10-19T13:45:33.592Z,86.90
2018-10-19T13:48:01.080Z,79.17
2018-10-19T13:50:28.628Z,101.20
2018-10-19T13:52:56.288Z,92.97
2018-10-19T13:55:24.364Z,104.13
2018-10-19T13:57:51.929Z,95.83
2018-10-19T14:00:19.459Z,95.33
2018-10-19T14:02:47.019Z,98.63
2018-10-19T14:05:14.718Z,89.23
2018-10-19T14:07:42.243Z,87.27
2018-10-19T14:10:10.511Z,86.20
2018-10-19T14:12:39.077Z,82.27
2018-10-19T14:15:07.315Z,78.13
2018-10-19T14:17:35.900Z,87.17
2018-10-19T14:20:03.721Z,85.83
2018-10-19T14:22:31.267Z,85.63
2018-10-19T14:24:58.825Z,94.70
2018-10-19T14:27:26.421Z,94.93
2018-10-19T14:29:54.009Z,92.63
2018-10-19T14:32:21.569Z,82.73
2018-10-19T14:34:49.179Z,94.67
2018-10-19T14:37:16.698Z,94.23
2018-10-19T14:39:44.305Z,93.30
2018-10-19T14:42:12.189Z,96.60
2018-10-19T14:44:39.675Z,88.57
2018-10-19T14:47:07.366Z,98.20
2018-10-19T14:49:34.869Z,94.93
2018-10-19T14:52:02.599Z,94.30
2018-10-19T14:54:30.340Z,94.73
2018-10-19T14:56:57.880Z,99.47
2018-10-19T14:59:25.450Z,95.80
2018-10-19T15:01:53.109Z,92.63
2018-10-19T15:04:20.710Z,103.93
2018-10-19T15:06:48.333Z,102.77
2018-10-19T15:09:16.059Z,98.10
2018-10-19T15:11:43.728Z,110.27
2018-10-19T15:14:11.156Z,101.60
2018-10-19T15:16:38.996Z,111.07
2018-10-19T15:19:06.558Z,116.57
2018-10-19T15:21:34.099Z,105.13
2018-10-19T15:24:01.669Z,109.03
2018-10-19T15:26:29.327Z,112.37
2018-10-19T15:28:56.942Z,121.93
2018-10-19T15:31:24.488Z,116.00
2018-10-19T15:33:52.285Z,107.93
2018-10-19T15:36:19.902Z,107.83
2018-10-19T15:38:47.602Z,120.20
2018-10-19T15:41:15.187Z,114.80
2018-10-19T15:43:42.752Z,107.47
2018-10-19T15:46:10.335Z,114.57
2018-10-19T15:48:37.885Z,119.80
2018-10-19T15:51:05.705Z,125.07
2018-10-19T15:53:33.352Z,124.63
2018-10-19T15:56:00.892Z,125.13
2018-10-19T15:58:28.622Z,119.40
2018-10-19T16:00:56.189Z,113.00
2018-10-19T16:03:23.794Z,111.93
2018-10-19T16:05:51.442Z,116.43
2018-10-19T16:08:19.076Z,125.87
2018-10-19T16:10:46.726Z,127.20
2018-10-19T16:13:14.268Z,130.83
2018-10-19T16:15:41.886Z,126.70
2018-10-19T16:18:09.545Z,116.90
2018-10-19T16:20:37.065Z,131.10
2018-10-19T16:23:05.001Z,113.23
2018-10-19T16:25:32.554Z,118.00
2018-10-19T16:28:00.121Z,116.40
2018-10-19T16:30:27.697Z,126.00
2018-10-19T16:32:55.374Z,121.80
2018-10-19T16:35:22.914Z,121.07
2018-10-19T16:37:50.514Z,126.80
2018-10-19T16:40:18.049Z,123.70
2018-10-19T16:42:45.604Z,122.03
2018-10-19T16:45:13.207Z,109.60
2018-10-19T16:47:40.783Z,121.87
2018-10-19T16:50:08.399Z,116.47
2018-10-19T16:52:36.093Z,110.17
2018-10-19T16:55:03.838Z,116.93
2018-10-19T16:57:31.850Z,126.43
2018-10-19T16:59:59.645Z,125.03
2018-10-19T17:02:27.197Z,133.63
2018-10-19T17:04:54.898Z,115.87
2018-10-19T17:07:22.491Z,113.50
2018-10-19T17:09:50.094Z,118.93
2018-10-19T17:12:17.757Z,109.97
2018-10-19T17:14:45.405Z,115.13
2018-10-19T17:17:13.066Z,123.80
2018-10-19T17:19:40.705Z,120.33
2018-10-19T17:22:08.988Z,125.83
2018-10-19T17:24:36.639Z,114.23
2018-10-19T17:27:04.871Z,107.43
2018-10-19T17:29:32.573Z,124.57
2018-10-19T17:32:00.255Z,122.97
2018-10-19T17:34:27.912Z,124.47
2018-10-19T17:36:55.606Z,119.17
2018-10-19T17:39:23.313Z,126.10
2018-10-19T17:41:50.984Z,108.80
2018-10-19T17:44:19.655Z,127.20
2018-10-19T17:46:47.322Z,128.40
2018-10-19T17:49:14.991Z,134.73
2018-10-19T17:51:43.511Z,128.93
2018-10-19T17:54:11.391Z,129.17
2018-10-19T17:56:40.522Z,109.07
2018-10-19T17:59:08.655Z,119.33
2018-10-19T18:01:36.329Z,113.13
2018-10-19T18:04:04.249Z,120.03
2018-10-19T18:06:31.913Z,131.20
2018-10-19T18:08:59.633Z,120.50
2018-10-19T18:11:29.089Z,112.40
2018-10-19T18:13:56.736Z,104.73
2018-10-19T18:16:24.905Z,113.60
2018-10-19T18:18:52.753Z,122.40
2018-10-19T18:21:20.904Z,125.23
2018-10-19T18:23:49.617Z,132.10
2018-10-19T18:26:17.325Z,129.40
2018-10-19T18:28:45.090Z,129.30
2018-10-19T18:31:13.293Z,134.70
2018-10-19T18:33:41.421Z,134.30
2018-10-19T18:36:10.105Z,122.77
2018-10-19T18:38:37.953Z,130.50
2018-10-19T18:41:05.687Z,121.03
2018-10-19T18:43:33.451Z,124.10
2018-10-19T18:46:01.210Z,121.73
2018-10-19T18:48:29.970Z,118.33
2018-10-19T18:50:57.683Z,135.53
2018-10-19T18:53:25.396Z,137.63
2018-10-19T18:55:53.119Z,132.13
2018-10-19T18:58:21.407Z,147.70
2018-10-19T19:00:49.355Z,147.40
2018-10-19T19:03:17.159Z,119.90
2018-10-19T19:05:44.921Z,125.63
2018-10-19T19:08:12.770Z,134.90
2018-10-19T19:10:40.462Z,136.23
2018-10-19T19:13:13.917Z,118.20
2018-10-19T19:15:41.727Z,140.13
2018-10-19T19:18:09.483Z,128.27
2018-10-19T19:20:37.168Z,135.80
2018-10-19T19:23:06.042Z,139.93
2018-10-19T19:25:39.476Z,143.27
2018-10-19T19:28:07.427Z,143.23
2018-10-19T19:30:35.091Z,131.07
2018-10-19T19:33:08.908Z,134.70
2018-10-19T19:35:37.396Z,140.20
2018-10-19T19:38:05.201Z,139.87
2018-10-19T19:40:39.300Z,145.53
2018-10-19T19:43:07.010Z,148.27
2018-10-19T19:45:34.687Z,127.60
2018-10-19T19:48:08.285Z,140.27
2018-10-19T19:50:36.361Z,138.43
2018-10-19T19:53:04.381Z,144.23
2018-10-19T19:55:32.303Z,140.27
2018-10-19T19:58:00.166Z,136.00
2018-10-19T20:00:27.928Z,134.67
2018-10-19T20:02:55.591Z,156.67
2018-10-19T20:05:24.491Z,146.20
2018-10-19T20:07:52.656Z,147.97
2018-10-19T20:10:21.118Z,139.83
2018-10-19T20:12:48.858Z,147.27
2018-10-19T20:15:16.637Z,134.53
2018-10-19T20:17:45.241Z,134.40
2018-10-19T20:20:13.340Z,128.43
2018-10-19T20:22:41.749Z,154.50
2018-10-19T20:25:10.441Z,129.50
2018-10-19T20:27:38.729Z,126.63
2018-10-19T20:30:09.884Z,127.50
2018-10-19T20:32:38.138Z,118.07
2018-10-19T20:35:06.710Z,129.42
2018-10-19T20:37:34.348Z,124.65
2018-10-19T20:40:02.745Z,132.35
2018-10-19T20:42:30.395Z,128.45
2018-10-19T20:44:58.023Z,134.27
2018-10-19T20:47:26.281Z,127.02
2018-10-19T20:49:53.986Z,124.53
2018-10-19T20:52:21.643Z,130.93
2018-10-19T20:54:49.446Z,132.18
2018-10-19T20:57:17.171Z,143.67
2018-10-19T20:59:44.812Z,142.28
2018-10-19T21:02:12.520Z,131.73
2018-10-19T21:04:40.277Z,139.03
2018-10-19T21:07:07.936Z,147.17
2018-10-19T21:09:36.390Z,187.70
2018-10-19T21:12:04.253Z,196.10
2018-10-19T21:14:32.543Z,224.95
2018-10-19T21:17:00.226Z,204.78
2018-10-19T21:19:31.282Z,153.32
2018-10-19T21:21:58.906Z,153.03
2018-10-19T21:24:26.585Z,156.50
2018-10-19T21:26:54.252Z,163.28
2018-10-19T21:29:21.937Z,166.53
2018-10-19T21:31:49.594Z,209.80
2018-10-19T21:34:17.202Z,166.50
2018-10-19T21:36:44.939Z,169.17
2018-10-19T21:39:12.600Z,146.02
2018-10-19T21:41:40.297Z,149.23
2018-10-19T21:44:08.032Z,136.62
2018-10-19T21:46:36.111Z,139.18
2018-10-19T21:49:04.060Z,142.00
2018-10-19T21:51:31.688Z,156.25
2018-10-19T21:53:59.419Z,146.70
2018-10-19T21:56:27.019Z,159.55
2018-10-19T21:58:54.674Z,176.00
2018-10-19T22:01:22.267Z,173.45
2018-10-19T22:03:50.006Z,169.30
2018-10-19T22:06:17.731Z,184.25
2018-10-19T22:08:45.329Z,175.38
2018-10-19T22:11:12.947Z,165.30
2018-10-19T22:13:40.536Z,192.77
2018-10-19T22:16:08.162Z,140.80
2018-10-19T22:18:35.717Z,171.43
2018-10-19T22:21:03.283Z,159.12
2018-10-19T22:23:30.884Z,146.55
2018-10-19T22:25:58.455Z,151.63
2018-10-19T22:28:26.017Z,142.65
2018-10-19T22:30:53.616Z,248.68
2018-10-19T22:33:21.181Z,141.55
2018-10-19T22:35:48.707Z,155.95
2018-10-19T22:38:16.245Z,147.80
2018-10-19T22:40:43.767Z,151.57
2018-10-19T22:43:11.394Z,215.57
2018-10-19T22:45:38.898Z,238.60
2018-10-19T22:48:06.526Z,179.25
2018-10-19T22:50:34.115Z,148.22
2018-10-19T22:53:01.806Z,127.47
2018-10-19T22:55:29.478Z,130.10
2018-10-19T22:57:57.058Z,127.25
2018-10-19T23:00:24.643Z,119.02
2018-10-19T23:02:52.222Z,133.75
2018-10-19T23:05:19.770Z,132.52
2018-10-19T23:07:47.307Z,137.92
2018-10-19T23:10:14.980Z,136.77
2018-10-19T23:12:42.538Z,131.78
2018-10-19T23:15:10.077Z,136.43
2018-10-19T23:17:37.761Z,133.80
2018-10-19T23:20:05.741Z,123.92
2018-10-19T23:22:33.317Z,121.55
2018-10-19T23:25:00.919Z,123.25
2018-10-19T23:27:28.523Z,122.22
2018-10-19T23:29:56.061Z,123.22
2018-10-19T23:32:23.617Z,120.40
2018-10-19T23:34:51.208Z,119.82
2018-10-19T23:37:18.733Z,140.10
2018-10-19T23:39:46.301Z,142.62
2018-10-19T23:42:13.863Z,132.32
2018-10-19T23:44:41.372Z,126.42
2018-10-19T23:47:08.961Z,260.68
2018-10-19T23:49:36.923Z,112.77
2018-10-19T23:52:04.914Z,113.37
2018-10-19T23:54:32.524Z,113.03
2018-10-19T23:57:00.137Z,113.75
2018-10-19T23:59:27.692Z,107.95
